CheckWX is a tool to help pilots better visualize weather data.  It is not intended as a substitute for an official pre-flight weather briefing.

15:36:13 UTC

EGGD METAR
Bristol International Airport
Bristol, United Kingdom
Current

46 mins ago

EGGD 211450Z AUTO 24017KT 9999 OVC025 09/05 Q1021
Observed
Feb-21 @ 14:50 UTC
Wind
  • 240° at 17 KTS
Visibility
10,000+ meters
Flight Rules
MVFR
Cloud Levels
  • Overcast at 2,500' AGL
Temperature
C / 48°F
Dewpoint
C / 41°F
Humidity
76%
Altimeter
30.15" Hg
Pressure
1020.92 hPa
Previous

1 hour ago

EGGD 211420Z AUTO 23015KT 9999 BKN025 OVC031 09/05 Q1021
Observed
Feb-21 @ 14:20 UTC
Wind
  • 230° at 15 KTS
Visibility
10,000+ meters
Flight Rules
MVFR
Cloud Levels
  • Broken at 2,500' AGL
  • Overcast at 3,100' AGL
Temperature
C / 48°F
Dewpoint
C / 41°F
Humidity
76%
Altimeter
30.15" Hg
Pressure
1020.92 hPa
Previous

2 hours ago

EGGD 211350Z AUTO 24016KT 9999 SCT025 OVC031 09/05 Q1021
Observed
Feb-21 @ 13:50 UTC
Wind
  • 240° at 16 KTS
Visibility
10,000+ meters
Flight Rules
VFR
Cloud Levels
  • Scattered at 2,500' AGL
  • Overcast at 3,100' AGL
Temperature
C / 48°F
Dewpoint
C / 41°F
Humidity
76%
Altimeter
30.15" Hg
Pressure
1020.92 hPa